Time;durP1;ratioP1;P1;durP2;ratioP2;P2;SDS_P1;SDS_P2;PMS_P1;PMS_P2;Temp;Humidity;BMP_temperature;BMP_pressure;BME280_temperature;BME280_humidity;BME280_pressure;Samples;Min_cycle;Max_cycle;Signal;HPM_P1;HPM_P2
2021/12/30 00:13:27;;;;;;;8.88;4.10;;;0.50;99.90;;;;;;6030971;23;20221;-79
2021/12/30 00:16:07;;;;;;;4.13;3.70;;;0.40;99.90;;;;;;6060949;23;20281;-78
2021/12/30 00:18:44;;;;;;;3.65;3.35;;;0.40;99.90;;;;;;6060909;23;20205;-77
2021/12/30 00:21:20;;;;;;;5.68;3.83;;;0.20;99.90;;;;;;6062189;23;20199;-77
2021/12/30 00:23:51;;;;;;;5.82;4.40;;;0.10;99.90;;;;;;6062507;23;20189;-77
2021/12/30 00:26:21;;;;;;;6.00;3.88;;;0.00;99.90;;;;;;6062007;23;20185;-79
2021/12/30 00:28:54;;;;;;;3.72;3.25;;;0.00;99.90;;;;;;6062302;23;20661;-83
2021/12/30 00:31:27;;;;;;;3.50;3.20;;;0.00;99.90;;;;;;6061472;23;20563;-77
2021/12/30 00:33:58;;;;;;;4.97;4.13;;;-0.10;99.90;;;;;;6062328;23;20204;-73
2021/12/30 00:36:29;;;;;;;5.07;3.95;;;-0.20;99.90;;;;;;6063006;23;20265;-82
2021/12/30 00:38:59;;;;;;;4.43;3.00;;;-0.20;99.90;;;;;;6064046;23;20231;-75
2021/12/30 00:41:31;;;;;;;6.57;3.30;;;-0.20;99.90;;;;;;6060515;23;20196;-75
2021/12/30 00:44:03;;;;;;;4.70;2.95;;;-0.20;99.90;;;;;;6063531;23;20654;-73
2021/12/30 00:46:34;;;;;;;5.82;3.47;;;-0.30;99.90;;;;;;6058656;23;20208;-73
2021/12/30 00:49:09;;;;;;;4.50;3.50;;;-0.30;99.90;;;;;;6059892;23;20200;-71
2021/12/30 00:51:43;;;;;;;5.03;3.78;;;-0.30;99.90;;;;;;6059950;23;20272;-71
2021/12/30 00:54:15;;;;;;;4.78;3.50;;;-0.50;99.90;;;;;;6064154;23;20188;-73
2021/12/30 00:56:46;;;;;;;6.85;3.25;;;-0.50;99.90;;;;;;6062463;23;20540;-71
2021/12/30 00:59:20;;;;;;;6.65;4.22;;;-0.50;99.90;;;;;;6058681;23;20205;-71
2021/12/30 01:01:51;;;;;;;4.88;4.30;;;-0.60;99.90;;;;;;6061689;23;20217;-70
2021/12/30 01:04:23;;;;;;;6.45;4.05;;;-0.60;99.90;;;;;;6057972;23;20197;-69
2021/12/30 01:06:53;;;;;;;4.57;4.05;;;-0.60;99.90;;;;;;6061729;23;20197;-73
2021/12/30 01:09:24;;;;;;;6.75;4.50;;;-0.70;99.90;;;;;;6062225;23;20623;-74
2021/12/30 01:11:56;;;;;;;4.25;3.70;;;-0.70;99.90;;;;;;6060009;23;20223;-74
2021/12/30 01:14:35;;;;;;;3.35;3.15;;;-0.80;99.90;;;;;;6060539;23;20196;-78
2021/12/30 01:17:25;;;;;;;6.85;3.80;;;-0.80;99.90;;;;;;6061503;23;20642;-75
2021/12/30 01:19:56;;;;;;;5.78;4.72;;;-0.70;99.90;;;;;;6051153;23;20683;-70
2021/12/30 01:22:29;;;;;;;8.65;4.00;;;-0.70;99.90;;;;;;6061594;23;20185;-70
2021/12/30 01:25:00;;;;;;;6.78;4.47;;;-0.80;99.90;;;;;;6055572;23;20278;-68
2021/12/30 01:27:32;;;;;;;9.18;5.60;;;-0.90;99.90;;;;;;6057974;23;20193;-72
2021/12/30 01:30:06;;;;;;;6.68;4.75;;;-0.90;99.90;;;;;;6063622;23;20187;-71
2021/12/30 01:32:40;;;;;;;3.97;3.55;;;-0.80;99.90;;;;;;6059841;23;20672;-74
2021/12/30 01:35:14;;;;;;;4.45;3.70;;;-0.90;99.90;;;;;;6056468;23;20185;-71
2021/12/30 01:37:45;;;;;;;5.10;3.47;;;-0.90;99.90;;;;;;6062979;23;20189;-70
2021/12/30 01:40:17;;;;;;;4.47;3.95;;;-1.00;99.90;;;;;;6061151;23;20189;-72
2021/12/30 01:42:49;;;;;;;3.40;3.10;;;-1.00;99.90;;;;;;6061954;23;20260;-69
2021/12/30 01:45:22;;;;;;;6.07;4.05;;;-1.00;99.90;;;;;;6061163;23;20701;-69
2021/12/30 01:47:54;;;;;;;4.80;3.47;;;-1.00;99.90;;;;;;6063545;23;20292;-68
2021/12/30 01:50:28;;;;;;;4.35;3.35;;;-1.00;99.90;;;;;;6060742;23;20207;-70
2021/12/30 01:53:00;;;;;;;4.88;3.60;;;-1.00;99.90;;;;;;6061052;23;20185;-69
2021/12/30 01:55:34;;;;;;;5.82;4.07;;;-1.10;99.90;;;;;;6063423;23;20285;-68
2021/12/30 01:58:07;;;;;;;8.05;4.78;;;-1.10;99.90;;;;;;6053383;23;20211;-68
2021/12/30 02:00:41;;;;;;;5.20;4.10;;;-1.20;99.90;;;;;;6061214;23;20197;-68
2021/12/30 02:03:12;;;;;;;5.30;4.22;;;-1.10;99.90;;;;;;6060275;23;20185;-69
2021/12/30 02:05:44;;;;;;;6.22;4.88;;;-1.10;99.90;;;;;;6061786;23;20186;-68
2021/12/30 02:11:18;;;;;;;5.50;4.40;;;-1.20;99.90;;;;;;6068415;23;20208;-69
2021/12/30 02:13:51;;;;;;;5.68;4.05;;;-1.20;99.90;;;;;;6063722;23;20257;-65
2021/12/30 02:16:26;;;;;;;5.43;4.15;;;-1.30;99.90;;;;;;6057487;23;20193;-64
2021/12/30 02:18:58;;;;;;;5.47;4.57;;;-1.10;99.90;;;;;;6060928;23;20201;-67
2021/12/30 02:21:30;;;;;;;7.93;4.80;;;-1.10;99.90;;;;;;6061931;23;20216;-68
2021/12/30 02:24:02;;;;;;;4.72;3.55;;;-1.30;99.90;;;;;;6063196;23;20607;-68
2021/12/30 02:26:33;;;;;;;5.60;3.90;;;-1.30;99.90;;;;;;6061205;23;20185;-68
2021/12/30 02:29:04;;;;;;;6.13;3.45;;;-1.30;99.90;;;;;;6060520;23;20185;-68
2021/12/30 02:31:35;;;;;;;7.22;4.20;;;-1.30;99.90;;;;;;6060409;23;20185;-71
2021/12/30 02:34:06;;;;;;;5.03;4.00;;;-1.40;99.90;;;;;;6060170;23;20201;-68
2021/12/30 02:36:39;;;;;;;6.07;4.60;;;-1.40;99.90;;;;;;6060905;23;20199;-68
2021/12/30 02:39:13;;;;;;;10.63;4.10;;;-1.40;99.90;;;;;;6056860;23;20288;-69
2021/12/30 02:41:44;;;;;;;10.15;4.65;;;-1.40;99.90;;;;;;6063286;23;20747;-71
2021/12/30 02:44:15;;;;;;;4.53;3.40;;;-1.30;99.90;;;;;;6061510;23;20207;-69
2021/12/30 02:46:51;;;;;;;7.65;4.97;;;-1.30;99.90;;;;;;6059489;23;20185;-68
2021/12/30 02:49:22;;;;;;;7.65;4.10;;;-1.40;99.90;;;;;;6057276;23;20477;-68
2021/12/30 02:51:55;;;;;;;4.78;4.03;;;-1.40;99.90;;;;;;6060830;23;20223;-68
2021/12/30 02:54:26;;;;;;;6.97;5.18;;;-1.30;99.90;;;;;;6055574;23;20678;-68
2021/12/30 02:56:57;;;;;;;8.75;4.80;;;-1.30;99.90;;;;;;6063137;23;20191;-68
2021/12/30 02:59:28;;;;;;;4.95;4.40;;;-1.40;99.90;;;;;;6060145;23;20675;-67
2021/12/30 03:01:58;;;;;;;6.93;4.85;;;-1.40;99.90;;;;;;6058520;23;20185;-69
2021/12/30 03:04:30;;;;;;;9.02;5.55;;;-1.30;99.90;;;;;;6059712;23;20189;-69
2021/12/30 03:07:02;;;;;;;8.48;4.97;;;-1.20;99.90;;;;;;6063048;23;20595;-67
2021/12/30 03:09:34;;;;;;;5.57;4.28;;;-1.30;99.90;;;;;;6060664;23;20181;-68
2021/12/30 03:12:05;;;;;;;5.68;4.55;;;-1.20;99.90;;;;;;6063110;23;20205;-70
2021/12/30 03:14:41;;;;;;;7.03;4.22;;;-1.20;99.90;;;;;;6058516;23;20276;-67
2021/12/30 03:17:12;;;;;;;5.95;4.90;;;-1.20;99.90;;;;;;6060851;23;20192;-68
2021/12/30 03:19:43;;;;;;;8.95;5.90;;;-1.10;99.90;;;;;;6057135;23;20755;-68
2021/12/30 03:22:15;;;;;;;6.38;5.38;;;-1.00;99.90;;;;;;6063031;23;20638;-68
2021/12/30 03:24:46;;;;;;;5.10;4.57;;;-1.00;99.90;;;;;;6056138;23;20185;-68
2021/12/30 03:27:17;;;;;;;6.18;4.72;;;-1.10;99.90;;;;;;6057565;23;20289;-69
2021/12/30 03:29:51;;;;;;;5.80;4.40;;;-1.00;99.90;;;;;;6063237;23;20181;-71
2021/12/30 03:32:23;;;;;;;7.85;4.90;;;-1.00;99.90;;;;;;6059954;23;20186;-68
2021/12/30 03:34:53;;;;;;;6.40;4.72;;;-1.00;99.90;;;;;;6060462;23;20190;-69
2021/12/30 03:37:26;;;;;;;6.93;4.95;;;-1.00;99.90;;;;;;6055686;23;20189;-72
2021/12/30 03:40:03;;;;;;;8.35;5.28;;;-0.90;99.90;;;;;;6045485;23;20662;-72
2021/12/30 03:42:35;;;;;;;6.60;4.82;;;-0.80;99.90;;;;;;6053018;23;20189;-74
2021/12/30 03:45:09;;;;;;;8.60;5.53;;;-0.90;99.90;;;;;;6055759;23;20185;-74
2021/12/30 03:48:04;;;;;;;12.68;5.55;;;-0.90;99.90;;;;;;6061432;23;20203;-74
2021/12/30 04:03:22;;;;;;;6.70;5.00;;;-1.00;99.90;;;;;;6036432;23;20266;-72
2021/12/30 04:13:51;;;;;;;9.10;6.55;;;-0.90;99.90;;;;;;6062596;23;20554;-75
2021/12/30 04:16:40;;;;;;;8.20;7.35;;;-0.90;99.90;;;;;;6055275;23;20534;-70
2021/12/30 05:03:26;;;;;;;6.78;6.13;;;-0.70;99.90;;;;;;6037838;23;20566;-76
2021/12/30 05:26:52;;;;;;;7.72;5.95;;;-0.40;99.90;;;;;;6025812;23;20186;-74
2021/12/30 11:33:16;;;;;;;13.85;10.55;;;0.90;99.90;;;;;;6060817;23;20226;-73
2021/12/30 12:30:39;;;;;;;8.47;4.73;;;1.60;99.90;;;;;;5394871;22;20063187;-73
2021/12/30 12:33:27;;;;;;;4.28;3.88;;;1.70;99.90;;;;;;6217529;23;20490;-75
2021/12/30 12:35:58;;;;;;;4.50;4.13;;;1.80;99.90;;;;;;6219379;23;20189;-75
2021/12/30 12:38:44;;;;;;;3.75;3.00;;;1.90;99.90;;;;;;6217496;23;20193;-74
2021/12/30 12:41:26;;;;;;;3.47;3.17;;;1.90;99.90;;;;;;6216008;23;20661;-74
2021/12/30 12:44:03;;;;;;;4.00;3.60;;;1.90;99.90;;;;;;6218880;23;20527;-73
2021/12/30 12:46:45;;;;;;;4.13;3.08;;;2.00;99.90;;;;;;6220093;23;20200;-74
2021/12/30 12:49:37;;;;;;;3.35;2.58;;;2.00;99.90;;;;;;6216796;23;20672;-75
2021/12/30 12:52:16;;;;;;;3.40;2.70;;;2.10;99.90;;;;;;6217173;23;20186;-74
2021/12/30 13:31:31;;;;;;;1.15;1.15;;;2.80;99.90;;;;;;6176531;23;20318;-73
2021/12/30 13:38:57;;;;;;;1.30;1.20;;;2.90;99.90;;;;;;6131918;23;20205;-74
2021/12/30 13:53:18;;;;;;;1.98;1.30;;;3.10;99.90;;;;;;6080649;23;20194;-74
2021/12/30 13:55:53;;;;;;;1.20;1.10;;;3.00;99.90;;;;;;6117691;23;20247;-73
2021/12/30 14:02:29;;;;;;;1.55;1.40;;;2.90;99.90;;;;;;6116224;23;20223;-75
2021/12/30 14:05:29;;;;;;;4.25;1.67;;;2.90;99.90;;;;;;6096397;23;20364;-72
2021/12/30 14:08:43;;;;;;;1.30;1.20;;;2.90;99.90;;;;;;6114368;23;20218;-73
2021/12/30 14:14:40;;;;;;;2.67;1.50;;;2.70;99.90;;;;;;6117124;23;20188;-74
2021/12/30 14:17:29;;;;;;;4.18;2.20;;;2.70;99.90;;;;;;6118418;23;20683;-73
2021/12/30 14:20:12;;;;;;;2.40;2.00;;;2.70;99.90;;;;;;6115114;23;20267;-74
2021/12/30 14:26:16;;;;;;;117.60;22.55;;;2.70;99.90;;;;;;6112036;23;20196;-75
2021/12/30 14:28:52;;;;;;;2.40;1.80;;;2.70;99.90;;;;;;6116553;23;20191;-73
2021/12/30 14:31:47;;;;;;;4.57;2.40;;;2.60;99.90;;;;;;6119616;23;20211;-73
2021/12/30 14:34:27;;;;;;;2.95;1.67;;;2.60;99.90;;;;;;6150990;23;20186;-71
2021/12/30 14:37:28;;;;;;;3.80;1.88;;;2.60;99.90;;;;;;6140326;23;20535;-73
2021/12/30 14:40:01;;;;;;;2.00;1.90;;;2.50;99.90;;;;;;6150694;23;20270;-72
2021/12/30 14:42:34;;;;;;;1.77;1.67;;;2.40;99.90;;;;;;6151150;23;20258;-74
2021/12/30 14:45:14;;;;;;;2.85;2.20;;;2.40;99.90;;;;;;6149278;23;20656;-72
2021/12/30 14:47:48;;;;;;;2.40;2.20;;;2.30;99.90;;;;;;6151640;23;20285;-72
2021/12/30 14:50:24;;;;;;;2.45;2.10;;;2.30;99.90;;;;;;6147613;23;20265;-72
2021/12/30 14:52:56;;;;;;;4.28;2.10;;;2.30;99.90;;;;;;6149402;23;20258;-71
2021/12/30 14:55:44;;;;;;;2.55;2.35;;;2.30;99.90;;;;;;6148637;23;20189;-72
2021/12/30 14:58:18;;;;;;;2.78;2.40;;;2.30;99.90;;;;;;6146932;23;20258;-71
2021/12/30 15:00:55;;;;;;;5.68;2.55;;;2.30;99.90;;;;;;6147498;23;20183;-72
2021/12/30 15:03:29;;;;;;;2.97;2.40;;;2.30;99.90;;;;;;6145343;23;20249;-72
2021/12/30 15:06:02;;;;;;;2.50;2.30;;;2.30;99.90;;;;;;6146323;23;20203;-70
2021/12/30 15:08:32;;;;;;;2.28;2.08;;;2.30;99.90;;;;;;6147221;23;20608;-72
2021/12/30 15:11:03;;;;;;;2.55;2.35;;;2.30;99.90;;;;;;6143327;23;20198;-71
2021/12/30 15:13:38;;;;;;;2.17;1.98;;;2.40;99.90;;;;;;6150214;23;20179;-70
2021/12/30 15:16:11;;;;;;;2.65;2.45;;;2.30;99.90;;;;;;6147111;23;20660;-70
2021/12/30 15:18:42;;;;;;;5.75;2.10;;;2.30;99.90;;;;;;6147859;23;20234;-70
2021/12/30 15:21:15;;;;;;;14.77;5.05;;;2.40;99.90;;;;;;6146232;23;20632;-70
2021/12/30 15:23:46;;;;;;;3.00;2.28;;;2.40;99.90;;;;;;6145809;23;20190;-70
2021/12/30 15:26:17;;;;;;;1.95;1.80;;;2.40;99.90;;;;;;6149171;23;20199;-71
2021/12/30 15:28:57;;;;;;;6.45;2.53;;;2.40;99.90;;;;;;6146470;23;20179;-73
2021/12/30 15:31:31;;;;;;;6.22;2.22;;;2.40;99.90;;;;;;6148650;23;20203;-69
2021/12/30 15:34:02;;;;;;;2.10;1.90;;;2.40;99.90;;;;;;6149739;23;20675;-70
2021/12/30 15:36:34;;;;;;;2.00;1.90;;;2.30;99.90;;;;;;6149040;23;20210;-70
2021/12/30 15:39:05;;;;;;;2.83;2.40;;;2.30;99.90;;;;;;6149177;23;20183;-70
2021/12/30 15:41:37;;;;;;;2.22;2.03;;;2.30;99.90;;;;;;6149310;23;20211;-71
2021/12/30 15:44:10;;;;;;;2.53;1.65;;;2.20;99.90;;;;;;6149150;23;20266;-68
2021/12/30 15:46:41;;;;;;;4.53;2.00;;;2.20;99.90;;;;;;6149021;23;20305;-68
2021/12/30 15:49:12;;;;;;;5.38;2.92;;;2.10;99.90;;;;;;6144578;23;20270;-68
2021/12/30 15:51:45;;;;;;;2.17;1.95;;;2.10;99.90;;;;;;6148369;23;20183;-68
2021/12/30 15:54:15;;;;;;;1.88;1.77;;;2.10;99.90;;;;;;6150493;23;20231;-68
2021/12/30 15:56:47;;;;;;;5.90;2.20;;;2.10;99.90;;;;;;6146752;23;20179;-69
2021/12/30 15:59:19;;;;;;;2.80;2.05;;;2.20;99.90;;;;;;6150104;23;20278;-71
2021/12/30 16:01:51;;;;;;;37.47;7.75;;;2.20;99.90;;;;;;6148437;23;20221;-70
2021/12/30 16:04:22;;;;;;;6.97;3.65;;;2.30;99.90;;;;;;6149406;23;20183;-69
2021/12/30 16:06:55;;;;;;;2.55;2.33;;;2.30;99.90;;;;;;6149116;23;20687;-70
2021/12/30 16:09:26;;;;;;;4.18;3.70;;;2.40;99.90;;;;;;6149892;23;20668;-71
2021/12/30 16:11:59;;;;;;;2.17;2.08;;;2.40;99.90;;;;;;6148033;23;20187;-70
2021/12/30 16:14:30;;;;;;;4.25;2.10;;;2.50;99.90;;;;;;6148630;23;20640;-69
2021/12/30 16:17:02;;;;;;;2.08;1.88;;;2.50;99.90;;;;;;6148811;23;20183;-71
2021/12/30 16:19:33;;;;;;;7.00;2.60;;;2.50;99.90;;;;;;6146425;23;20189;-69
2021/12/30 16:22:06;;;;;;;1.40;1.30;;;2.60;99.90;;;;;;6146384;23;20530;-68
2021/12/30 16:24:37;;;;;;;1.80;1.70;;;2.70;99.90;;;;;;6147770;23;20659;-69
2021/12/30 16:27:16;;;;;;;2.78;1.70;;;2.70;99.90;;;;;;6148902;23;20575;-76
2021/12/30 16:29:47;;;;;;;1.50;1.38;;;2.70;99.90;;;;;;6158951;23;20498;-72
2021/12/30 16:32:18;;;;;;;1.60;1.50;;;2.60;99.90;;;;;;6179527;23;20183;-71
2021/12/30 16:34:49;;;;;;;528.47;97.28;;;2.60;99.90;;;;;;6178687;23;20189;-73
2021/12/30 16:37:30;;;;;;;1.30;1.20;;;2.60;99.90;;;;;;6181220;23;20182;-74
2021/12/30 16:40:24;;;;;;;1.58;1.48;;;2.60;99.90;;;;;;6176057;23;20196;-73
2021/12/30 16:50:26;;;;;;;1.63;1.48;;;2.60;99.90;;;;;;6165962;23;20220;-74
2021/12/30 17:01:35;;;;;;;122.03;22.65;;;2.60;99.90;;;;;;6178489;23;20257;-75
2021/12/30 17:04:12;;;;;;;1.92;1.80;;;2.70;99.90;;;;;;6177854;23;20261;-74
2021/12/30 17:07:12;;;;;;;2.22;2.05;;;2.80;99.90;;;;;;6180520;23;20295;-78
2021/12/30 17:56:54;;;;;;;2.40;2.20;;;4.50;99.90;;;;;;6095412;23;20185;-72
2021/12/30 17:59:28;;;;;;;2.00;1.90;;;4.70;99.90;;;;;;6150190;23;20182;-73
2021/12/30 18:02:07;;;;;;;2.17;2.08;;;4.80;99.90;;;;;;6143661;23;20195;-76
2021/12/30 18:05:25;;;;;;;4.10;2.60;;;4.70;99.90;;;;;;6140227;23;20237;-71
2021/12/30 18:08:08;;;;;;;2.42;2.22;;;4.90;99.90;;;;;;6155043;23;20213;-73
2021/12/30 18:11:07;;;;;;;3.40;3.10;;;5.10;99.90;;;;;;6148131;23;20587;-73
2021/12/30 18:14:39;;;;;;;25.65;6.93;;;5.20;99.90;;;;;;6138219;23;20194;-75
2021/12/30 18:17:18;;;;;;;109.47;21.98;;;5.20;99.90;;;;;;6146712;23;20187;-72
2021/12/30 18:20:02;;;;;;;2.53;1.90;;;5.00;99.90;;;;;;6138518;23;20190;-71
2021/12/30 18:22:36;;;;;;;2.75;2.55;;;5.00;99.90;;;;;;6148732;23;20198;-71
2021/12/30 18:25:10;;;;;;;1.85;1.75;;;5.30;99.90;;;;;;6147519;23;20226;-71
2021/12/30 18:27:46;;;;;;;2.50;2.08;;;5.90;99.90;;;;;;6150445;23;20207;-72
2021/12/30 18:30:19;;;;;;;2.50;2.33;;;5.90;99.90;;;;;;6165878;23;20635;-72
2021/12/30 18:32:51;;;;;;;2.28;2.00;;;5.80;99.90;;;;;;6180023;23;20189;-72
2021/12/30 18:35:28;;;;;;;3.05;2.20;;;5.70;99.90;;;;;;6178851;23;20182;-73
2021/12/30 18:38:01;;;;;;;2.10;1.90;;;5.70;99.90;;;;;;6178626;23;20197;-71
2021/12/30 18:40:32;;;;;;;6.28;2.40;;;5.70;99.90;;;;;;6180804;23;20186;-71
2021/12/30 18:43:08;;;;;;;2.03;1.80;;;6.40;99.90;;;;;;6178363;23;20200;-72
2021/12/30 18:46:05;;;;;;;1.88;1.70;;;7.10;99.90;;;;;;6177573;23;20201;-73
2021/12/30 18:48:40;;;;;;;1.90;1.80;;;7.30;99.90;;;;;;6177071;23;20203;-73
2021/12/30 18:51:12;;;;;;;3.30;1.80;;;7.00;99.90;;;;;;6177833;23;20706;-71
2021/12/30 18:53:43;;;;;;;2.38;2.17;;;6.60;99.90;;;;;;6176020;23;20183;-70
2021/12/30 18:56:13;;;;;;;2.30;1.77;;;6.30;99.90;;;;;;6180695;23;20508;-72
2021/12/30 18:58:45;;;;;;;3.03;2.30;;;6.00;99.90;;;;;;6176743;23;20190;-70
2021/12/30 19:01:17;;;;;;;2.88;2.15;;;5.80;99.90;;;;;;6178559;23;20187;-71
2021/12/30 19:03:49;;;;;;;4.43;2.15;;;5.70;99.90;;;;;;6176979;23;20185;-71
2021/12/30 19:06:21;;;;;;;2.42;2.22;;;5.60;99.90;;;;;;6175708;23;20201;-70
2021/12/30 19:08:55;;;;;;;2.58;2.25;;;5.40;99.90;;;;;;6179406;23;20253;-71
2021/12/30 19:11:28;;;;;;;542.90;94.60;;;5.40;99.90;;;;;;6179066;23;20182;-71
2021/12/30 19:14:00;;;;;;;15.02;4.53;;;5.40;99.90;;;;;;6179763;23;20277;-71
2021/12/30 19:16:33;;;;;;;75.15;13.48;;;5.40;99.90;;;;;;6178386;23;20182;-67
2021/12/30 19:19:05;;;;;;;2.50;2.30;;;5.40;99.90;;;;;;6171058;23;20186;-69
2021/12/30 19:21:36;;;;;;;3.80;3.25;;;5.30;99.90;;;;;;6174739;23;20187;-68
2021/12/30 19:24:07;;;;;;;2.80;2.50;;;5.30;99.90;;;;;;6178408;23;20262;-72
2021/12/30 19:26:38;;;;;;;3.88;2.13;;;5.40;99.90;;;;;;6176660;23;20674;-72
2021/12/30 19:29:09;;;;;;;3.58;2.83;;;5.40;99.90;;;;;;6180306;23;20198;-67
2021/12/30 19:31:42;;;;;;;2.85;2.55;;;5.40;99.90;;;;;;6178257;23;20193;-67
2021/12/30 19:34:13;;;;;;;2.70;2.30;;;5.50;99.90;;;;;;6174572;23;20187;-67
2021/12/30 19:36:43;;;;;;;2.83;2.63;;;5.50;99.90;;;;;;6180487;23;20183;-67
2021/12/30 19:39:15;;;;;;;4.20;2.70;;;5.50;99.90;;;;;;6177100;23;20453;-68
2021/12/30 19:41:46;;;;;;;9.60;3.05;;;5.50;99.90;;;;;;6180630;23;20182;-70
2021/12/30 19:44:17;;;;;;;3.65;2.65;;;5.40;99.90;;;;;;6178029;23;20190;-70
2021/12/30 19:46:49;;;;;;;4.20;2.50;;;5.60;99.90;;;;;;6180700;23;20183;-70
2021/12/30 19:49:21;;;;;;;3.20;2.42;;;5.70;99.90;;;;;;6177233;23;20221;-70
2021/12/30 19:51:52;;;;;;;5.75;3.15;;;5.80;99.90;;;;;;6176712;23;20182;-68
2021/12/30 19:54:23;;;;;;;3.95;3.00;;;5.80;99.90;;;;;;6175789;23;20186;-69
2021/12/30 19:56:54;;;;;;;4.65;2.65;;;5.70;99.90;;;;;;6175209;23;20198;-69
2021/12/30 19:59:25;;;;;;;4.07;3.05;;;5.70;99.90;;;;;;6177661;23;20262;-69
2021/12/30 20:01:59;;;;;;;6.35;3.30;;;5.70;99.90;;;;;;6178141;23;20201;-69
2021/12/30 20:04:30;;;;;;;8.05;3.30;;;5.80;99.90;;;;;;6175825;23;20183;-67
2021/12/30 20:07:01;;;;;;;4.13;3.45;;;5.80;99.90;;;;;;6178884;23;20222;-70
2021/12/30 20:09:32;;;;;;;4.60;2.88;;;5.90;99.90;;;;;;6179205;23;20207;-70
2021/12/30 20:12:03;;;;;;;4.32;2.55;;;5.90;99.90;;;;;;6181817;23;20509;-70
2021/12/30 20:14:44;;;;;;;6.47;3.63;;;5.90;99.90;;;;;;6181721;23;20189;-70
2021/12/30 20:17:20;;;;;;;4.22;3.38;;;5.80;99.90;;;;;;6180742;23;20193;-70
2021/12/30 20:19:51;;;;;;;5.45;2.92;;;5.70;99.90;;;;;;6175897;23;20183;-70
2021/12/30 20:22:22;;;;;;;3.67;3.38;;;5.90;99.90;;;;;;6182265;23;20187;-70
2021/12/30 20:24:53;;;;;;;5.80;2.88;;;6.00;99.90;;;;;;6179387;23;20230;-71
2021/12/30 20:27:24;;;;;;;6.88;3.10;;;6.10;99.90;;;;;;6177525;23;20183;-70
2021/12/30 20:29:55;;;;;;;4.88;3.00;;;6.20;99.90;;;;;;6179224;23;20700;-70
2021/12/30 20:32:28;;;;;;;7.03;4.18;;;6.30;99.90;;;;;;6180093;23;20183;-68
2021/12/30 20:34:58;;;;;;;5.03;3.17;;;6.20;99.90;;;;;;6180595;23;20204;-70
2021/12/30 20:37:29;;;;;;;4.57;3.50;;;6.00;99.90;;;;;;6180151;23;20189;-69
2021/12/30 20:40:00;;;;;;;5.25;3.83;;;6.00;99.90;;;;;;6182024;23;20639;-69
2021/12/30 20:42:31;;;;;;;5.88;3.10;;;6.10;99.90;;;;;;6180253;23;20556;-69
2021/12/30 20:45:03;;;;;;;8.60;4.00;;;6.10;99.90;;;;;;6180953;23;20186;-70
2021/12/30 20:47:43;;;;;;;10.95;2.90;;;6.10;99.90;;;;;;6180339;23;20240;-71
2021/12/30 20:50:16;;;;;;;7.90;2.83;;;6.20;99.90;;;;;;6178090;23;20208;-70
2021/12/30 20:52:48;;;;;;;3.50;2.78;;;6.30;99.90;;;;;;6180276;23;20531;-71
2021/12/30 20:55:23;;;;;;;6.35;3.35;;;6.30;99.90;;;;;;6181863;23;20182;-70
2021/12/30 20:57:54;;;;;;;5.97;2.80;;;6.40;99.90;;;;;;6180272;23;20192;-69
2021/12/30 21:00:30;;;;;;;5.22;2.65;;;6.60;99.90;;;;;;6181013;23;20183;-69
2021/12/30 21:03:03;;;;;;;7.03;2.90;;;6.60;99.90;;;;;;6177466;23;20190;-70
2021/12/30 21:05:35;;;;;;;6.40;2.67;;;6.80;99.90;;;;;;6180372;23;20184;-70
2021/12/30 21:08:08;;;;;;;5.03;2.67;;;6.90;99.90;;;;;;6180020;23;20276;-69
2021/12/30 21:10:42;;;;;;;7.20;3.33;;;7.00;99.90;;;;;;6181604;23;20183;-68
2021/12/30 21:13:14;;;;;;;7.57;2.83;;;7.10;99.90;;;;;;6170496;23;20187;-68
2021/12/30 21:15:45;;;;;;;6.38;2.20;;;7.10;99.90;;;;;;6178730;23;20188;-68
2021/12/30 21:18:21;;;;;;;4.25;2.38;;;7.10;99.90;;;;;;6176709;23;20612;-69
2021/12/30 21:20:53;;;;;;;4.45;2.60;;;7.00;99.90;;;;;;6176536;23;20580;-66
2021/12/30 21:23:26;;;;;;;10.07;3.00;;;7.10;99.90;;;;;;6178600;23;20246;-66
2021/12/30 21:25:57;;;;;;;10.02;3.20;;;7.10;99.90;;;;;;6181557;23;20192;-66
2021/12/30 21:28:29;;;;;;;8.38;2.58;;;7.00;99.90;;;;;;6171141;23;20202;-68
2021/12/30 21:31:00;;;;;;;6.05;2.60;;;7.00;99.90;;;;;;6177015;23;20202;-68
2021/12/30 21:37:03;;;;;;;8.57;3.40;;;6.90;99.90;;;;;;6159788;23;20205;-67
2021/12/30 21:43:02;;;;;;;9.45;3.88;;;6.70;99.90;;;;;;6166701;23;20190;-67
2021/12/30 21:45:41;;;;;;;5.70;3.03;;;6.50;99.90;;;;;;6178559;23;20287;-67
2021/12/30 21:48:12;;;;;;;5.57;3.15;;;6.40;99.90;;;;;;6176588;23;20535;-66
2021/12/30 21:50:46;;;;;;;11.82;3.38;;;6.30;99.90;;;;;;6178338;23;20186;-66
2021/12/30 21:53:17;;;;;;;7.43;3.40;;;6.30;99.90;;;;;;6178935;23;20471;-68
2021/12/30 21:55:49;;;;;;;9.02;2.92;;;6.30;99.90;;;;;;6176876;23;20183;-68
2021/12/30 21:58:23;;;;;;;5.10;2.47;;;6.30;99.90;;;;;;6179253;23;20189;-72
2021/12/30 22:00:54;;;;;;;8.43;3.63;;;6.40;99.90;;;;;;6177366;23;20182;-70
2021/12/30 22:03:26;;;;;;;6.80;3.40;;;6.60;99.90;;;;;;6177840;23;20702;-71
2021/12/30 22:05:58;;;;;;;8.60;2.47;;;6.50;99.90;;;;;;6179242;23;20515;-73
2021/12/30 22:08:30;;;;;;;7.35;3.63;;;6.40;99.90;;;;;;6179224;23;20258;-69
2021/12/30 22:11:03;;;;;;;5.35;3.15;;;6.50;99.90;;;;;;6174927;23;20202;-70
2021/12/30 22:13:35;;;;;;;7.93;2.72;;;6.60;99.90;;;;;;6171720;23;20301;-71
2021/12/30 22:16:06;;;;;;;11.10;2.88;;;6.70;99.90;;;;;;6176564;23;20262;-71
2021/12/30 22:18:40;;;;;;;10.45;3.10;;;6.60;99.90;;;;;;6171632;23;20193;-75
2021/12/30 22:21:13;;;;;;;4.22;2.63;;;6.60;99.90;;;;;;6179646;23;20191;-70
2021/12/30 22:23:44;;;;;;;182.40;31.35;;;6.60;99.90;;;;;;6183229;23;20592;-69
2021/12/30 22:26:19;;;;;;;11.40;3.00;;;6.60;99.90;;;;;;6178460;23;20179;-74
2021/12/30 22:28:53;;;;;;;6.80;3.35;;;6.60;99.90;;;;;;6177050;23;20209;-70
2021/12/30 22:31:26;;;;;;;5.53;3.20;;;6.50;99.90;;;;;;6180936;23;20210;-73
2021/12/30 22:33:58;;;;;;;4.82;2.90;;;6.50;99.90;;;;;;6176286;23;20615;-74
2021/12/30 22:36:30;;;;;;;6.65;2.50;;;6.50;99.90;;;;;;6179148;23;20183;-69
2021/12/30 22:39:01;;;;;;;7.57;2.60;;;6.60;99.90;;;;;;6176642;23;20190;-74
2021/12/30 22:41:32;;;;;;;4.80;2.47;;;6.60;99.90;;;;;;6176906;23;20183;-75
2021/12/30 22:44:05;;;;;;;3.60;2.40;;;6.70;99.90;;;;;;6174545;23;20234;-69
2021/12/30 22:46:36;;;;;;;3.53;1.85;;;6.80;99.90;;;;;;6174588;23;20643;-70
2021/12/30 22:49:08;;;;;;;3.60;2.58;;;7.00;99.90;;;;;;6178073;23;20646;-71
2021/12/30 22:51:43;;;;;;;4.53;2.10;;;7.10;99.90;;;;;;6175975;23;20197;-68
2021/12/30 22:54:13;;;;;;;5.13;2.75;;;7.20;99.90;;;;;;6176258;23;20193;-68
2021/12/30 22:56:44;;;;;;;6.55;3.10;;;7.40;99.90;;;;;;6175796;23;20267;-71
2021/12/30 22:59:19;;;;;;;6.57;2.78;;;7.60;99.90;;;;;;6176626;23;20345;-69
2021/12/30 23:01:50;;;;;;;6.78;2.50;;;7.60;99.90;;;;;;6173874;23;20193;-72
2021/12/30 23:04:21;;;;;;;6.65;3.17;;;7.30;99.90;;;;;;6175083;23;20214;-75
2021/12/30 23:06:54;;;;;;;7.57;3.00;;;7.20;99.90;;;;;;6176586;23;20193;-70
2021/12/30 23:09:25;;;;;;;5.85;3.13;;;7.20;99.90;;;;;;6175375;23;20206;-70
2021/12/30 23:11:55;;;;;;;8.48;3.45;;;7.30;99.90;;;;;;6175571;23;20186;-69
2021/12/30 23:14:26;;;;;;;7.32;3.33;;;7.30;99.90;;;;;;6175862;23;20208;-69
2021/12/30 23:16:59;;;;;;;10.10;3.03;;;7.50;99.90;;;;;;6178392;23;20206;-72
2021/12/30 23:19:30;;;;;;;4.15;2.60;;;7.40;99.90;;;;;;6177750;23;20301;-68
2021/12/30 23:22:03;;;;;;;6.40;3.03;;;7.30;99.90;;;;;;6178676;23;20189;-69
2021/12/30 23:24:34;;;;;;;6.88;2.63;;;7.30;99.90;;;;;;6184731;23;20210;-71
2021/12/30 23:27:05;;;;;;;7.85;3.40;;;7.30;99.90;;;;;;6207922;23;20193;-75
2021/12/30 23:29:36;;;;;;;73.47;13.15;;;7.20;99.90;;;;;;6205778;23;20202;-69
2021/12/30 23:32:07;;;;;;;3.60;2.33;;;7.10;99.90;;;;;;6208740;23;20217;-68
2021/12/30 23:34:38;;;;;;;6.57;2.90;;;7.20;99.90;;;;;;6204976;23;20185;-68
2021/12/30 23:37:10;;;;;;;7.18;2.88;;;7.20;99.90;;;;;;6206369;23;20188;-69
2021/12/30 23:39:41;;;;;;;4.03;2.35;;;6.90;99.90;;;;;;6207395;23;20185;-69
2021/12/30 23:42:12;;;;;;;7.63;2.97;;;6.80;99.90;;;;;;6207143;23;20188;-67
2021/12/30 23:44:43;;;;;;;3.65;2.55;;;6.80;99.90;;;;;;6199055;23;20189;-67
2021/12/30 23:47:14;;;;;;;3.10;2.50;;;6.70;99.90;;;;;;6212322;23;20189;-70
2021/12/30 23:49:45;;;;;;;5.10;2.60;;;6.80;99.90;;;;;;6207191;23;20206;-67
2021/12/30 23:52:17;;;;;;;4.05;2.45;;;6.70;99.90;;;;;;6211012;23;20194;-67
2021/12/30 23:54:48;;;;;;;3.80;2.10;;;6.60;99.90;;;;;;6206411;23;20182;-67
2021/12/30 23:57:19;;;;;;;5.30;3.03;;;6.70;99.90;;;;;;6206023;23;20182;-70
2021/12/30 23:59:50;;;;;;;6.00;2.90;;;6.70;99.90;;;;;;6204569;23;20178;-68
